Terminal Aerodrome Forecast
Issued by NWS La Crosse, WI

Current Version | Previous Version | Text Only | Print | Product List | Glossary On
Versions: 1 2 3 4 5 6 7 8 9 10 11 12 13 14 15 16 17 18 19 20 21 22 23 24 25 26 27 28 29 30 31 32 33 34 35 36 37 38 39 40 41 42 43 44 45 46
037
FTUS43 KARX 210501 AAA
TAFRST
TAF AMD
KRST 210501Z 2105/2124 03005KT 4SM BR FEW250
     FM210600 10004KT 3SM BR SCT250
     FM211000 12004KT 5SM BR BKN250
     FM211200 14006KT P6SM -SHRA VCTS BKN090CB=

USA.gov is the U.S. government's official web portal to all federal, state and local government web resources and services.